sensor_id;sensor_type;location;lat;lon;timestamp;P1;durP1;ratioP1;P2;durP2;ratioP2
37931;SDS011;23758;42.640;23.302;2023-08-20T00:00:07;2.53;;;2.03;;
37931;SDS011;23758;42.640;23.302;2023-08-20T00:02:33;1.90;;;1.80;;
37931;SDS011;23758;42.640;23.302;2023-08-20T00:05:01;2.10;;;2.00;;
37931;SDS011;23758;42.640;23.302;2023-08-20T00:07:28;2.13;;;2.00;;
37931;SDS011;23758;42.640;23.302;2023-08-20T00:09:55;2.10;;;2.00;;
37931;SDS011;23758;42.640;23.302;2023-08-20T00:12:20;1.90;;;1.80;;
37931;SDS011;23758;42.640;23.302;2023-08-20T00:14:54;2.35;;;2.25;;
37931;SDS011;23758;42.640;23.302;2023-08-20T00:17:23;2.58;;;2.38;;
37931;SDS011;23758;42.640;23.302;2023-08-20T00:19:52;2.38;;;2.20;;
37931;SDS011;23758;42.640;23.302;2023-08-20T00:22:24;2.00;;;1.90;;
37931;SDS011;23758;42.640;23.302;2023-08-20T00:24:53;2.13;;;2.03;;
37931;SDS011;23758;42.640;23.302;2023-08-20T00:27:20;2.65;;;2.45;;
37931;SDS011;23758;42.640;23.302;2023-08-20T00:29:45;2.40;;;2.20;;
37931;SDS011;23758;42.640;23.302;2023-08-20T00:32:11;2.20;;;2.00;;
37931;SDS011;23758;42.640;23.302;2023-08-20T00:34:36;2.10;;;2.00;;
37931;SDS011;23758;42.640;23.302;2023-08-20T00:37:02;2.35;;;2.15;;
37931;SDS011;23758;42.640;23.302;2023-08-20T00:39:28;1.98;;;1.88;;
37931;SDS011;23758;42.640;23.302;2023-08-20T00:41:54;2.20;;;2.10;;
37931;SDS011;23758;42.640;23.302;2023-08-20T00:44:20;2.13;;;2.03;;
37931;SDS011;23758;42.640;23.302;2023-08-20T00:46:45;2.17;;;2.08;;
37931;SDS011;23758;42.640;23.302;2023-08-20T00:49:10;2.17;;;2.08;;
37931;SDS011;23758;42.640;23.302;2023-08-20T00:51:36;2.05;;;1.95;;
37931;SDS011;23758;42.640;23.302;2023-08-20T00:54:02;2.20;;;2.08;;
37931;SDS011;23758;42.640;23.302;2023-08-20T00:56:28;2.08;;;1.98;;
37931;SDS011;23758;42.640;23.302;2023-08-20T00:58:54;2.67;;;2.45;;
37931;SDS011;23758;42.640;23.302;2023-08-20T01:01:21;2.10;;;1.90;;
37931;SDS011;23758;42.640;23.302;2023-08-20T01:03:46;2.00;;;1.90;;
37931;SDS011;23758;42.640;23.302;2023-08-20T01:06:16;2.10;;;2.00;;
37931;SDS011;23758;42.640;23.302;2023-08-20T01:08:47;2.25;;;2.05;;
37931;SDS011;23758;42.640;23.302;2023-08-20T01:11:21;2.30;;;2.20;;
37931;SDS011;23758;42.640;23.302;2023-08-20T01:13:54;2.78;;;2.58;;
37931;SDS011;23758;42.640;23.302;2023-08-20T01:16:20;2.10;;;1.90;;
37931;SDS011;23758;42.640;23.302;2023-08-20T01:18:46;2.20;;;2.10;;
37931;SDS011;23758;42.640;23.302;2023-08-20T01:21:37;2.13;;;2.03;;
37931;SDS011;23758;42.640;23.302;2023-08-20T01:24:05;2.17;;;2.00;;
37931;SDS011;23758;42.640;23.302;2023-08-20T01:27:38;2.00;;;1.90;;
37931;SDS011;23758;42.640;23.302;2023-08-20T01:32:15;2.10;;;2.00;;
37931;SDS011;23758;42.640;23.302;2023-08-20T01:34:41;2.13;;;2.00;;
37931;SDS011;23758;42.640;23.302;2023-08-20T01:37:07;1.80;;;1.70;;
37931;SDS011;23758;42.640;23.302;2023-08-20T01:39:33;2.33;;;2.10;;
37931;SDS011;23758;42.640;23.302;2023-08-20T01:41:58;2.22;;;2.03;;
37931;SDS011;23758;42.640;23.302;2023-08-20T01:44:24;2.00;;;1.90;;
37931;SDS011;23758;42.640;23.302;2023-08-20T01:46:49;2.10;;;2.00;;
37931;SDS011;23758;42.640;23.302;2023-08-20T01:49:14;2.40;;;2.20;;
37931;SDS011;23758;42.640;23.302;2023-08-20T01:51:40;2.00;;;1.90;;
37931;SDS011;23758;42.640;23.302;2023-08-20T01:54:06;2.00;;;1.90;;
37931;SDS011;23758;42.640;23.302;2023-08-20T01:56:31;2.08;;;1.98;;
37931;SDS011;23758;42.640;23.302;2023-08-20T01:58:57;2.03;;;1.92;;
37931;SDS011;23758;42.640;23.302;2023-08-20T02:01:22;2.13;;;2.03;;
37931;SDS011;23758;42.640;23.302;2023-08-20T02:03:48;2.45;;;2.30;;
37931;SDS011;23758;42.640;23.302;2023-08-20T02:06:13;2.28;;;2.17;;
37931;SDS011;23758;42.640;23.302;2023-08-20T02:08:38;1.90;;;1.80;;
37931;SDS011;23758;42.640;23.302;2023-08-20T02:11:04;2.17;;;2.08;;
37931;SDS011;23758;42.640;23.302;2023-08-20T02:13:30;3.15;;;2.00;;
37931;SDS011;23758;42.640;23.302;2023-08-20T02:18:28;2.30;;;2.10;;
37931;SDS011;23758;42.640;23.302;2023-08-20T02:20:55;2.20;;;2.10;;
37931;SDS011;23758;42.640;23.302;2023-08-20T02:23:20;2.58;;;2.38;;
37931;SDS011;23758;42.640;23.302;2023-08-20T02:25:46;2.17;;;2.08;;
37931;SDS011;23758;42.640;23.302;2023-08-20T02:28:12;2.50;;;2.30;;
37931;SDS011;23758;42.640;23.302;2023-08-20T02:30:39;2.10;;;2.00;;
37931;SDS011;23758;42.640;23.302;2023-08-20T02:33:05;2.75;;;2.50;;
37931;SDS011;23758;42.640;23.302;2023-08-20T02:35:31;1.80;;;1.70;;
37931;SDS011;23758;42.640;23.302;2023-08-20T02:37:56;3.88;;;2.00;;
37931;SDS011;23758;42.640;23.302;2023-08-20T02:40:22;2.03;;;1.92;;
37931;SDS011;23758;42.640;23.302;2023-08-20T02:42:47;2.22;;;2.08;;
37931;SDS011;23758;42.640;23.302;2023-08-20T02:45:13;2.08;;;1.98;;
37931;SDS011;23758;42.640;23.302;2023-08-20T02:47:38;2.03;;;1.92;;
37931;SDS011;23758;42.640;23.302;2023-08-20T02:50:04;2.00;;;1.90;;
37931;SDS011;23758;42.640;23.302;2023-08-20T02:52:30;2.70;;;2.50;;
37931;SDS011;23758;42.640;23.302;2023-08-20T02:54:55;2.60;;;2.40;;
37931;SDS011;23758;42.640;23.302;2023-08-20T02:57:20;2.20;;;2.10;;
37931;SDS011;23758;42.640;23.302;2023-08-20T02:59:46;2.00;;;1.90;;
37931;SDS011;23758;42.640;23.302;2023-08-20T03:02:12;2.20;;;2.10;;
37931;SDS011;23758;42.640;23.302;2023-08-20T03:04:37;2.00;;;1.90;;
37931;SDS011;23758;42.640;23.302;2023-08-20T03:07:02;2.22;;;2.13;;
37931;SDS011;23758;42.640;23.302;2023-08-20T03:09:28;2.00;;;1.90;;
37931;SDS011;23758;42.640;23.302;2023-08-20T03:11:53;2.15;;;2.05;;
37931;SDS011;23758;42.640;23.302;2023-08-20T03:14:19;2.10;;;2.00;;
37931;SDS011;23758;42.640;23.302;2023-08-20T03:16:44;2.13;;;2.03;;
37931;SDS011;23758;42.640;23.302;2023-08-20T03:19:10;2.53;;;2.33;;
37931;SDS011;23758;42.640;23.302;2023-08-20T03:21:35;2.20;;;2.10;;
37931;SDS011;23758;42.640;23.302;2023-08-20T03:24:00;2.63;;;2.42;;
37931;SDS011;23758;42.640;23.302;2023-08-20T03:26:26;2.30;;;2.20;;
37931;SDS011;23758;42.640;23.302;2023-08-20T03:28:52;2.47;;;2.17;;
37931;SDS011;23758;42.640;23.302;2023-08-20T03:31:17;2.10;;;2.00;;
37931;SDS011;23758;42.640;23.302;2023-08-20T03:33:43;2.22;;;2.13;;
37931;SDS011;23758;42.640;23.302;2023-08-20T03:36:08;2.10;;;2.00;;
37931;SDS011;23758;42.640;23.302;2023-08-20T03:38:34;2.15;;;2.05;;
37931;SDS011;23758;42.640;23.302;2023-08-20T03:40:59;2.33;;;2.13;;
37931;SDS011;23758;42.640;23.302;2023-08-20T03:43:25;2.55;;;2.38;;
37931;SDS011;23758;42.640;23.302;2023-08-20T03:45:53;3.13;;;2.90;;
37931;SDS011;23758;42.640;23.302;2023-08-20T03:48:19;2.67;;;2.47;;
37931;SDS011;23758;42.640;23.302;2023-08-20T03:50:45;2.92;;;2.72;;
37931;SDS011;23758;42.640;23.302;2023-08-20T03:53:10;2.95;;;2.75;;
37931;SDS011;23758;42.640;23.302;2023-08-20T03:55:36;3.20;;;3.00;;
37931;SDS011;23758;42.640;23.302;2023-08-20T03:58:01;3.00;;;2.80;;
37931;SDS011;23758;42.640;23.302;2023-08-20T04:00:27;3.15;;;2.95;;
37931;SDS011;23758;42.640;23.302;2023-08-20T04:02:53;3.38;;;3.17;;
37931;SDS011;23758;42.640;23.302;2023-08-20T04:05:18;2.90;;;2.70;;
37931;SDS011;23758;42.640;23.302;2023-08-20T04:07:44;3.30;;;3.10;;
37931;SDS011;23758;42.640;23.302;2023-08-20T04:10:10;2.97;;;2.78;;
37931;SDS011;23758;42.640;23.302;2023-08-20T04:12:35;2.85;;;2.65;;
37931;SDS011;23758;42.640;23.302;2023-08-20T04:15:01;3.13;;;2.92;;
37931;SDS011;23758;42.640;23.302;2023-08-20T04:17:27;2.80;;;2.60;;
37931;SDS011;23758;42.640;23.302;2023-08-20T04:19:52;2.70;;;2.50;;
37931;SDS011;23758;42.640;23.302;2023-08-20T04:22:18;2.70;;;2.50;;
37931;SDS011;23758;42.640;23.302;2023-08-20T04:24:43;2.50;;;2.30;;
37931;SDS011;23758;42.640;23.302;2023-08-20T04:27:09;2.40;;;2.30;;
37931;SDS011;23758;42.640;23.302;2023-08-20T04:29:34;2.35;;;2.25;;
37931;SDS011;23758;42.640;23.302;2023-08-20T04:31:59;4.20;;;2.35;;
37931;SDS011;23758;42.640;23.302;2023-08-20T04:34:25;2.30;;;2.20;;
37931;SDS011;23758;42.640;23.302;2023-08-20T04:36:50;2.17;;;2.03;;
37931;SDS011;23758;42.640;23.302;2023-08-20T04:39:17;2.25;;;2.05;;
37931;SDS011;23758;42.640;23.302;2023-08-20T04:41:43;2.17;;;2.08;;
37931;SDS011;23758;42.640;23.302;2023-08-20T04:44:09;1.95;;;1.85;;
37931;SDS011;23758;42.640;23.302;2023-08-20T04:46:34;1.90;;;1.80;;
37931;SDS011;23758;42.640;23.302;2023-08-20T04:49:00;1.83;;;1.73;;
37931;SDS011;23758;42.640;23.302;2023-08-20T04:51:25;1.98;;;1.85;;
37931;SDS011;23758;42.640;23.302;2023-08-20T04:53:51;2.15;;;2.00;;
37931;SDS011;23758;42.640;23.302;2023-08-20T04:56:16;2.33;;;2.15;;
37931;SDS011;23758;42.640;23.302;2023-08-20T04:58:42;2.40;;;2.20;;
37931;SDS011;23758;42.640;23.302;2023-08-20T05:01:07;2.03;;;1.90;;
37931;SDS011;23758;42.640;23.302;2023-08-20T05:03:34;2.03;;;1.92;;
37931;SDS011;23758;42.640;23.302;2023-08-20T05:05:59;1.80;;;1.70;;
37931;SDS011;23758;42.640;23.302;2023-08-20T05:08:25;1.67;;;1.58;;
37931;SDS011;23758;42.640;23.302;2023-08-20T05:10:50;1.60;;;1.50;;
37931;SDS011;23758;42.640;23.302;2023-08-20T05:13:16;1.50;;;1.40;;
37931;SDS011;23758;42.640;23.302;2023-08-20T05:15:42;1.50;;;1.40;;
37931;SDS011;23758;42.640;23.302;2023-08-20T05:18:10;1.98;;;1.88;;
37931;SDS011;23758;42.640;23.302;2023-08-20T05:20:36;1.65;;;1.55;;
37931;SDS011;23758;42.640;23.302;2023-08-20T05:23:01;1.67;;;1.58;;
37931;SDS011;23758;42.640;23.302;2023-08-20T05:25:28;1.67;;;1.50;;
37931;SDS011;23758;42.640;23.302;2023-08-20T05:27:53;1.50;;;1.40;;
37931;SDS011;23758;42.640;23.302;2023-08-20T05:30:19;1.77;;;1.67;;
37931;SDS011;23758;42.640;23.302;2023-08-20T05:32:44;1.60;;;1.50;;
37931;SDS011;23758;42.640;23.302;2023-08-20T05:35:10;2.15;;;1.98;;
37931;SDS011;23758;42.640;23.302;2023-08-20T05:37:35;1.70;;;1.60;;
37931;SDS011;23758;42.640;23.302;2023-08-20T05:40:01;1.63;;;1.52;;
37931;SDS011;23758;42.640;23.302;2023-08-20T05:42:27;2.15;;;1.95;;
37931;SDS011;23758;42.640;23.302;2023-08-20T05:44:53;1.80;;;1.70;;
37931;SDS011;23758;42.640;23.302;2023-08-20T05:47:18;1.90;;;1.80;;
37931;SDS011;23758;42.640;23.302;2023-08-20T05:49:43;2.53;;;2.30;;
37931;SDS011;23758;42.640;23.302;2023-08-20T05:52:09;1.95;;;1.85;;
37931;SDS011;23758;42.640;23.302;2023-08-20T05:54:34;2.00;;;1.90;;
37931;SDS011;23758;42.640;23.302;2023-08-20T05:57:00;2.10;;;2.00;;
37931;SDS011;23758;42.640;23.302;2023-08-20T05:59:27;1.90;;;1.80;;
37931;SDS011;23758;42.640;23.302;2023-08-20T06:01:55;2.60;;;2.40;;
37931;SDS011;23758;42.640;23.302;2023-08-20T06:04:21;2.20;;;2.10;;
37931;SDS011;23758;42.640;23.302;2023-08-20T06:06:46;2.63;;;2.42;;
37931;SDS011;23758;42.640;23.302;2023-08-20T06:09:12;2.97;;;2.70;;
37931;SDS011;23758;42.640;23.302;2023-08-20T06:11:38;2.38;;;2.17;;
37931;SDS011;23758;42.640;23.302;2023-08-20T06:14:03;2.20;;;2.10;;
37931;SDS011;23758;42.640;23.302;2023-08-20T06:16:29;2.10;;;2.00;;
37931;SDS011;23758;42.640;23.302;2023-08-20T06:18:54;2.10;;;2.00;;
37931;SDS011;23758;42.640;23.302;2023-08-20T06:21:20;1.98;;;1.88;;
37931;SDS011;23758;42.640;23.302;2023-08-20T06:23:45;2.10;;;1.90;;
37931;SDS011;23758;42.640;23.302;2023-08-20T06:26:11;1.80;;;1.70;;
37931;SDS011;23758;42.640;23.302;2023-08-20T06:28:36;1.67;;;1.58;;
37931;SDS011;23758;42.640;23.302;2023-08-20T06:31:02;1.80;;;1.70;;
37931;SDS011;23758;42.640;23.302;2023-08-20T06:33:27;1.90;;;1.80;;
37931;SDS011;23758;42.640;23.302;2023-08-20T06:35:53;1.77;;;1.67;;
37931;SDS011;23758;42.640;23.302;2023-08-20T06:38:18;1.60;;;1.50;;
37931;SDS011;23758;42.640;23.302;2023-08-20T06:40:43;1.67;;;1.58;;
37931;SDS011;23758;42.640;23.302;2023-08-20T06:43:09;1.92;;;1.83;;
37931;SDS011;23758;42.640;23.302;2023-08-20T06:45:34;1.70;;;1.60;;
37931;SDS011;23758;42.640;23.302;2023-08-20T06:48:00;1.77;;;1.67;;
37931;SDS011;23758;42.640;23.302;2023-08-20T06:50:25;1.75;;;1.63;;
37931;SDS011;23758;42.640;23.302;2023-08-20T06:52:51;1.50;;;1.40;;
37931;SDS011;23758;42.640;23.302;2023-08-20T06:55:16;1.70;;;1.60;;
37931;SDS011;23758;42.640;23.302;2023-08-20T06:57:41;1.50;;;1.40;;
37931;SDS011;23758;42.640;23.302;2023-08-20T07:00:07;2.05;;;1.55;;
37931;SDS011;23758;42.640;23.302;2023-08-20T07:02:33;1.70;;;1.60;;
37931;SDS011;23758;42.640;23.302;2023-08-20T07:04:58;1.60;;;1.50;;
37931;SDS011;23758;42.640;23.302;2023-08-20T07:07:23;1.48;;;1.38;;
37931;SDS011;23758;42.640;23.302;2023-08-20T07:09:49;1.58;;;1.48;;
37931;SDS011;23758;42.640;23.302;2023-08-20T07:12:14;1.58;;;1.48;;
37931;SDS011;23758;42.640;23.302;2023-08-20T07:14:40;1.52;;;1.42;;
37931;SDS011;23758;42.640;23.302;2023-08-20T07:17:05;1.50;;;1.40;;
37931;SDS011;23758;42.640;23.302;2023-08-20T07:19:31;1.40;;;1.30;;
37931;SDS011;23758;42.640;23.302;2023-08-20T07:21:56;1.48;;;1.38;;
37931;SDS011;23758;42.640;23.302;2023-08-20T07:24:22;2.45;;;1.58;;
37931;SDS011;23758;42.640;23.302;2023-08-20T07:26:50;1.40;;;1.30;;
37931;SDS011;23758;42.640;23.302;2023-08-20T07:29:24;2.45;;;1.65;;
37931;SDS011;23758;42.640;23.302;2023-08-20T07:31:50;1.40;;;1.30;;
37931;SDS011;23758;42.640;23.302;2023-08-20T07:34:15;1.30;;;1.20;;
37931;SDS011;23758;42.640;23.302;2023-08-20T07:36:41;1.50;;;1.40;;
37931;SDS011;23758;42.640;23.302;2023-08-20T07:39:06;1.30;;;1.20;;
37931;SDS011;23758;42.640;23.302;2023-08-20T07:41:33;1.48;;;1.38;;
37931;SDS011;23758;42.640;23.302;2023-08-20T07:43:59;1.38;;;1.27;;
37931;SDS011;23758;42.640;23.302;2023-08-20T07:46:25;1.10;;;1.10;;
37931;SDS011;23758;42.640;23.302;2023-08-20T07:48:51;1.33;;;1.23;;
37931;SDS011;23758;42.640;23.302;2023-08-20T07:51:16;1.40;;;1.30;;
37931;SDS011;23758;42.640;23.302;2023-08-20T07:53:41;1.50;;;1.40;;
37931;SDS011;23758;42.640;23.302;2023-08-20T07:56:07;1.00;;;1.00;;
37931;SDS011;23758;42.640;23.302;2023-08-20T07:58:34;1.50;;;1.40;;
37931;SDS011;23758;42.640;23.302;2023-08-20T08:00:59;1.10;;;1.10;;
37931;SDS011;23758;42.640;23.302;2023-08-20T08:03:25;1.30;;;1.20;;
37931;SDS011;23758;42.640;23.302;2023-08-20T08:05:54;1.10;;;1.10;;
37931;SDS011;23758;42.640;23.302;2023-08-20T08:08:20;1.63;;;1.52;;
37931;SDS011;23758;42.640;23.302;2023-08-20T08:10:46;1.25;;;1.20;;
37931;SDS011;23758;42.640;23.302;2023-08-20T08:13:12;1.27;;;1.20;;
37931;SDS011;23758;42.640;23.302;2023-08-20T08:15:38;1.00;;;1.00;;
37931;SDS011;23758;42.640;23.302;2023-08-20T08:18:04;1.52;;;1.42;;
37931;SDS011;23758;42.640;23.302;2023-08-20T08:20:29;1.50;;;1.40;;
37931;SDS011;23758;42.640;23.302;2023-08-20T08:22:55;1.52;;;1.42;;
37931;SDS011;23758;42.640;23.302;2023-08-20T08:25:20;1.33;;;1.23;;
37931;SDS011;23758;42.640;23.302;2023-08-20T08:27:46;1.30;;;1.20;;
37931;SDS011;23758;42.640;23.302;2023-08-20T08:30:11;1.20;;;1.20;;
37931;SDS011;23758;42.640;23.302;2023-08-20T08:32:37;1.30;;;1.20;;
37931;SDS011;23758;42.640;23.302;2023-08-20T08:35:02;1.33;;;1.23;;
37931;SDS011;23758;42.640;23.302;2023-08-20T08:37:28;1.10;;;1.10;;
37931;SDS011;23758;42.640;23.302;2023-08-20T08:39:53;1.30;;;1.20;;
37931;SDS011;23758;42.640;23.302;2023-08-20T08:42:19;1.05;;;1.05;;
37931;SDS011;23758;42.640;23.302;2023-08-20T08:44:47;1.30;;;1.20;;
37931;SDS011;23758;42.640;23.302;2023-08-20T08:47:13;1.30;;;1.20;;
37931;SDS011;23758;42.640;23.302;2023-08-20T08:49:39;1.48;;;1.38;;
37931;SDS011;23758;42.640;23.302;2023-08-20T08:52:05;1.30;;;1.20;;
37931;SDS011;23758;42.640;23.302;2023-08-20T08:54:32;1.20;;;1.20;;
37931;SDS011;23758;42.640;23.302;2023-08-20T08:56:58;1.48;;;1.38;;
37931;SDS011;23758;42.640;23.302;2023-08-20T08:59:24;1.30;;;1.20;;
37931;SDS011;23758;42.640;23.302;2023-08-20T09:01:49;1.55;;;1.45;;
37931;SDS011;23758;42.640;23.302;2023-08-20T09:04:15;2.50;;;1.55;;
37931;SDS011;23758;42.640;23.302;2023-08-20T09:06:44;1.48;;;1.38;;
37931;SDS011;23758;42.640;23.302;2023-08-20T09:09:13;1.20;;;1.20;;
37931;SDS011;23758;42.640;23.302;2023-08-20T09:11:38;1.40;;;1.30;;
37931;SDS011;23758;42.640;23.302;2023-08-20T09:14:04;1.13;;;1.13;;
37931;SDS011;23758;42.640;23.302;2023-08-20T09:16:30;1.33;;;1.23;;
37931;SDS011;23758;42.640;23.302;2023-08-20T09:18:57;1.00;;;1.00;;
37931;SDS011;23758;42.640;23.302;2023-08-20T09:21:26;1.30;;;1.20;;
37931;SDS011;23758;42.640;23.302;2023-08-20T09:23:55;1.10;;;1.10;;
37931;SDS011;23758;42.640;23.302;2023-08-20T09:26:22;1.00;;;1.00;;
37931;SDS011;23758;42.640;23.302;2023-08-20T09:28:48;1.02;;;1.02;;
37931;SDS011;23758;42.640;23.302;2023-08-20T09:31:14;1.05;;;1.05;;
37931;SDS011;23758;42.640;23.302;2023-08-20T09:33:52;0.90;;;0.90;;
37931;SDS011;23758;42.640;23.302;2023-08-20T09:36:18;0.90;;;0.90;;
37931;SDS011;23758;42.640;23.302;2023-08-20T09:38:54;0.90;;;0.90;;
37931;SDS011;23758;42.640;23.302;2023-08-20T09:41:19;0.90;;;0.90;;
37931;SDS011;23758;42.640;23.302;2023-08-20T09:43:46;0.90;;;0.90;;
37931;SDS011;23758;42.640;23.302;2023-08-20T09:46:12;1.10;;;1.00;;
37931;SDS011;23758;42.640;23.302;2023-08-20T09:48:38;0.90;;;0.90;;
37931;SDS011;23758;42.640;23.302;2023-08-20T09:51:11;1.02;;;1.00;;
37931;SDS011;23758;42.640;23.302;2023-08-20T09:53:38;1.10;;;1.00;;
37931;SDS011;23758;42.640;23.302;2023-08-20T09:56:15;0.80;;;0.80;;
37931;SDS011;23758;42.640;23.302;2023-08-20T09:58:53;0.88;;;0.88;;
37931;SDS011;23758;42.640;23.302;2023-08-20T10:01:19;0.80;;;0.80;;
37931;SDS011;23758;42.640;23.302;2023-08-20T10:03:45;0.80;;;0.80;;
37931;SDS011;23758;42.640;23.302;2023-08-20T10:06:11;0.80;;;0.80;;
37931;SDS011;23758;42.640;23.302;2023-08-20T10:08:36;0.70;;;0.70;;
37931;SDS011;23758;42.640;23.302;2023-08-20T10:11:03;0.90;;;0.90;;
37931;SDS011;23758;42.640;23.302;2023-08-20T10:13:29;0.75;;;0.75;;
37931;SDS011;23758;42.640;23.302;2023-08-20T10:15:54;1.00;;;1.00;;
37931;SDS011;23758;42.640;23.302;2023-08-20T10:18:20;0.77;;;0.77;;
37931;SDS011;23758;42.640;23.302;2023-08-20T10:20:49;0.80;;;0.80;;
37931;SDS011;23758;42.640;23.302;2023-08-20T10:23:15;0.73;;;0.73;;
37931;SDS011;23758;42.640;23.302;2023-08-20T10:25:47;0.77;;;0.77;;
37931;SDS011;23758;42.640;23.302;2023-08-20T10:28:19;0.90;;;0.90;;
37931;SDS011;23758;42.640;23.302;2023-08-20T10:33:28;0.88;;;0.88;;
37931;SDS011;23758;42.640;23.302;2023-08-20T10:35:54;0.90;;;0.90;;
37931;SDS011;23758;42.640;23.302;2023-08-20T10:38:19;0.80;;;0.80;;
37931;SDS011;23758;42.640;23.302;2023-08-20T10:43:26;0.90;;;0.90;;
37931;SDS011;23758;42.640;23.302;2023-08-20T10:48:38;0.90;;;0.90;;
37931;SDS011;23758;42.640;23.302;2023-08-20T10:53:36;1.70;;;1.15;;
37931;SDS011;23758;42.640;23.302;2023-08-20T10:56:15;1.33;;;1.10;;
37931;SDS011;23758;42.640;23.302;2023-08-20T10:58:42;1.45;;;1.35;;
37931;SDS011;23758;42.640;23.302;2023-08-20T11:01:15;1.58;;;1.40;;
37931;SDS011;23758;42.640;23.302;2023-08-20T11:03:45;1.20;;;1.13;;
37931;SDS011;23758;42.640;23.302;2023-08-20T11:06:12;1.63;;;1.05;;
37931;SDS011;23758;42.640;23.302;2023-08-20T11:08:38;1.23;;;1.20;;
37931;SDS011;23758;42.640;23.302;2023-08-20T11:11:04;1.00;;;1.00;;
37931;SDS011;23758;42.640;23.302;2023-08-20T11:13:32;6.93;;;1.55;;
37931;SDS011;23758;42.640;23.302;2023-08-20T11:15:57;1.10;;;1.10;;
37931;SDS011;23758;42.640;23.302;2023-08-20T11:18:24;1.10;;;1.10;;
37931;SDS011;23758;42.640;23.302;2023-08-20T11:20:50;1.10;;;1.00;;
37931;SDS011;23758;42.640;23.302;2023-08-20T11:23:16;0.98;;;0.98;;
37931;SDS011;23758;42.640;23.302;2023-08-20T11:25:42;1.00;;;1.00;;
37931;SDS011;23758;42.640;23.302;2023-08-20T11:28:08;0.95;;;0.95;;
37931;SDS011;23758;42.640;23.302;2023-08-20T11:30:34;0.93;;;0.93;;
37931;SDS011;23758;42.640;23.302;2023-08-20T11:33:00;1.17;;;1.08;;
37931;SDS011;23758;42.640;23.302;2023-08-20T11:35:28;1.00;;;1.00;;
37931;SDS011;23758;42.640;23.302;2023-08-20T11:37:54;0.90;;;0.90;;
37931;SDS011;23758;42.640;23.302;2023-08-20T11:40:20;0.98;;;0.95;;
37931;SDS011;23758;42.640;23.302;2023-08-20T11:42:46;0.80;;;0.80;;
37931;SDS011;23758;42.640;23.302;2023-08-20T11:45:11;0.90;;;0.90;;
37931;SDS011;23758;42.640;23.302;2023-08-20T11:47:40;0.73;;;0.73;;
37931;SDS011;23758;42.640;23.302;2023-08-20T11:50:06;2.05;;;1.00;;
37931;SDS011;23758;42.640;23.302;2023-08-20T11:52:33;0.88;;;0.88;;
37931;SDS011;23758;42.640;23.302;2023-08-20T11:54:59;0.70;;;0.70;;
37931;SDS011;23758;42.640;23.302;2023-08-20T11:57:25;0.80;;;0.80;;
37931;SDS011;23758;42.640;23.302;2023-08-20T11:59:51;0.80;;;0.80;;
37931;SDS011;23758;42.640;23.302;2023-08-20T12:02:24;1.58;;;1.00;;
37931;SDS011;23758;42.640;23.302;2023-08-20T12:04:54;0.90;;;0.90;;
37931;SDS011;23758;42.640;23.302;2023-08-20T12:07:24;0.70;;;0.70;;
37931;SDS011;23758;42.640;23.302;2023-08-20T12:09:54;0.93;;;0.85;;
37931;SDS011;23758;42.640;23.302;2023-08-20T12:12:20;0.90;;;0.90;;
37931;SDS011;23758;42.640;23.302;2023-08-20T12:14:46;0.95;;;0.85;;
37931;SDS011;23758;42.640;23.302;2023-08-20T12:17:11;0.73;;;0.73;;
37931;SDS011;23758;42.640;23.302;2023-08-20T12:19:37;0.75;;;0.75;;
37931;SDS011;23758;42.640;23.302;2023-08-20T12:22:02;0.80;;;0.80;;
37931;SDS011;23758;42.640;23.302;2023-08-20T12:24:28;0.80;;;0.80;;
37931;SDS011;23758;42.640;23.302;2023-08-20T12:26:54;0.73;;;0.73;;
37931;SDS011;23758;42.640;23.302;2023-08-20T12:29:20;0.90;;;0.90;;
37931;SDS011;23758;42.640;23.302;2023-08-20T12:31:45;0.88;;;0.88;;
37931;SDS011;23758;42.640;23.302;2023-08-20T12:34:11;1.17;;;1.08;;
37931;SDS011;23758;42.640;23.302;2023-08-20T12:36:36;0.80;;;0.80;;
37931;SDS011;23758;42.640;23.302;2023-08-20T12:39:02;0.90;;;0.90;;
37931;SDS011;23758;42.640;23.302;2023-08-20T12:41:29;1.00;;;1.00;;
37931;SDS011;23758;42.640;23.302;2023-08-20T12:43:54;1.35;;;1.25;;
37931;SDS011;23758;42.640;23.302;2023-08-20T12:46:20;0.80;;;0.80;;
37931;SDS011;23758;42.640;23.302;2023-08-20T12:48:45;1.00;;;1.00;;
37931;SDS011;23758;42.640;23.302;2023-08-20T12:51:11;1.00;;;1.00;;
37931;SDS011;23758;42.640;23.302;2023-08-20T12:53:39;1.08;;;1.02;;
37931;SDS011;23758;42.640;23.302;2023-08-20T12:56:04;0.95;;;0.95;;
37931;SDS011;23758;42.640;23.302;2023-08-20T12:58:30;0.90;;;0.90;;
37931;SDS011;23758;42.640;23.302;2023-08-20T13:00:55;0.90;;;0.90;;
37931;SDS011;23758;42.640;23.302;2023-08-20T13:03:21;2.00;;;1.35;;
37931;SDS011;23758;42.640;23.302;2023-08-20T13:05:47;1.02;;;1.02;;
37931;SDS011;23758;42.640;23.302;2023-08-20T13:08:12;1.27;;;1.17;;
37931;SDS011;23758;42.640;23.302;2023-08-20T13:10:41;1.13;;;1.10;;
37931;SDS011;23758;42.640;23.302;2023-08-20T13:13:10;1.08;;;1.08;;
37931;SDS011;23758;42.640;23.302;2023-08-20T13:15:38;0.90;;;0.90;;
37931;SDS011;23758;42.640;23.302;2023-08-20T13:18:04;1.25;;;1.17;;
37931;SDS011;23758;42.640;23.302;2023-08-20T13:20:29;1.10;;;1.10;;
37931;SDS011;23758;42.640;23.302;2023-08-20T13:22:55;1.30;;;1.20;;
37931;SDS011;23758;42.640;23.302;2023-08-20T13:25:21;1.25;;;1.20;;
37931;SDS011;23758;42.640;23.302;2023-08-20T13:27:47;1.40;;;1.30;;
37931;SDS011;23758;42.640;23.302;2023-08-20T13:30:12;1.00;;;1.00;;
37931;SDS011;23758;42.640;23.302;2023-08-20T13:32:38;1.00;;;1.00;;
37931;SDS011;23758;42.640;23.302;2023-08-20T13:35:04;1.73;;;1.63;;
37931;SDS011;23758;42.640;23.302;2023-08-20T13:37:30;1.35;;;1.25;;
37931;SDS011;23758;42.640;23.302;2023-08-20T13:39:56;6.63;;;1.65;;
37931;SDS011;23758;42.640;23.302;2023-08-20T13:42:22;1.50;;;1.40;;
37931;SDS011;23758;42.640;23.302;2023-08-20T13:44:47;1.10;;;1.10;;
37931;SDS011;23758;42.640;23.302;2023-08-20T13:47:13;1.30;;;1.20;;
37931;SDS011;23758;42.640;23.302;2023-08-20T13:49:38;1.27;;;1.20;;
37931;SDS011;23758;42.640;23.302;2023-08-20T13:52:04;1.17;;;1.15;;
37931;SDS011;23758;42.640;23.302;2023-08-20T13:54:29;1.10;;;1.10;;
37931;SDS011;23758;42.640;23.302;2023-08-20T13:56:55;1.30;;;1.20;;
37931;SDS011;23758;42.640;23.302;2023-08-20T13:59:21;1.10;;;1.10;;
37931;SDS011;23758;42.640;23.302;2023-08-20T14:01:48;1.10;;;1.10;;
37931;SDS011;23758;42.640;23.302;2023-08-20T14:04:13;1.50;;;1.40;;
37931;SDS011;23758;42.640;23.302;2023-08-20T14:06:39;1.25;;;1.20;;
37931;SDS011;23758;42.640;23.302;2023-08-20T14:09:04;1.10;;;1.10;;
37931;SDS011;23758;42.640;23.302;2023-08-20T14:11:30;1.52;;;1.42;;
37931;SDS011;23758;42.640;23.302;2023-08-20T14:13:55;1.00;;;1.00;;
37931;SDS011;23758;42.640;23.302;2023-08-20T14:16:21;1.30;;;1.20;;
37931;SDS011;23758;42.640;23.302;2023-08-20T14:18:47;1.20;;;1.20;;
37931;SDS011;23758;42.640;23.302;2023-08-20T14:21:12;1.30;;;1.20;;
37931;SDS011;23758;42.640;23.302;2023-08-20T14:23:37;1.10;;;1.10;;
37931;SDS011;23758;42.640;23.302;2023-08-20T14:26:03;1.33;;;1.25;;
37931;SDS011;23758;42.640;23.302;2023-08-20T14:28:29;1.33;;;1.23;;
37931;SDS011;23758;42.640;23.302;2023-08-20T14:30:55;1.38;;;1.27;;
37931;SDS011;23758;42.640;23.302;2023-08-20T14:33:20;1.25;;;1.20;;
37931;SDS011;23758;42.640;23.302;2023-08-20T14:35:46;1.40;;;1.30;;
37931;SDS011;23758;42.640;23.302;2023-08-20T14:38:12;1.40;;;1.30;;
37931;SDS011;23758;42.640;23.302;2023-08-20T14:40:38;1.10;;;1.10;;
37931;SDS011;23758;42.640;23.302;2023-08-20T14:43:05;1.15;;;1.15;;